Time;durP1;ratioP1;P1;durP2;ratioP2;P2;SDS_P1;SDS_P2;PMS_P1;PMS_P2;Temp;Humidity;BMP_temperature;BMP_pressure;BME280_temperature;BME280_humidity;BME280_pressure;Samples;Min_cycle;Max_cycle;Signal;HPM_P1;HPM_P2
2022/11/30 00:00:13;;;;;;;19.58;11.98;;;;;;;9.01;86.20;100572.88;10389256;28;20056;-62
2022/11/30 00:05:14;;;;;;;18.52;11.57;;;;;;;9.04;86.23;100570.00;10390682;28;20041;-62
2022/11/30 00:10:16;;;;;;;20.02;12.13;;;;;;;9.03;86.20;100557.66;10394542;28;20419;-64
2022/11/30 00:15:17;;;;;;;18.98;12.35;;;;;;;9.00;86.79;100568.50;10388101;28;20059;-62
2022/11/30 00:20:19;;;;;;;20.52;13.90;;;;;;;8.95;87.16;100554.69;10393355;28;20422;-62
2022/11/30 00:25:20;;;;;;;20.25;13.90;;;;;;;8.93;87.52;100561.91;10393421;28;20253;-62
2022/11/30 00:30:21;;;;;;;17.92;13.15;;;;;;;8.88;87.85;100553.41;10394139;28;20052;-64
2022/11/30 00:35:23;;;;;;;16.55;12.63;;;;;;;8.99;87.96;100557.03;10392916;28;20532;-64
2022/11/30 00:40:24;;;;;;;20.52;13.90;;;;;;;8.80;87.58;100533.56;10392212;28;20056;-62
2022/11/30 00:45:26;;;;;;;17.42;12.35;;;;;;;9.06;87.74;100561.91;10390544;28;20412;-63
2022/11/30 00:50:27;;;;;;;20.70;13.55;;;;;;;9.07;87.24;100559.16;10384990;28;20088;-62
2022/11/30 00:55:30;;;;;;;19.60;12.35;;;;;;;9.05;86.78;100550.44;10392259;28;20310;-63
2022/11/30 01:00:32;;;;;;;18.45;12.10;;;;;;;9.09;86.57;100546.59;10391207;28;20052;-62
2022/11/30 01:05:33;;;;;;;22.63;13.23;;;;;;;9.12;86.32;100541.09;10393573;28;20045;-63
2022/11/30 01:10:37;;;;;;;22.80;12.25;;;;;;;9.05;86.11;100550.44;10389274;28;20585;-63
2022/11/30 01:15:41;;;;;;;25.02;13.18;;;;;;;9.06;85.74;100557.44;10388409;28;20053;-62
2022/11/30 01:20:43;;;;;;;20.17;13.00;;;;;;;9.06;86.43;100554.78;10394109;28;20133;-63
2022/11/30 01:25:53;;;;;;;19.35;13.75;;;;;;;9.07;85.44;100553.84;10412579;28;20084;-64
2022/11/30 01:30:56;;;;;;;22.90;13.73;;;;;;;9.05;85.78;100555.75;10410166;28;20095;-63
2022/11/30 01:36:03;;;;;;;20.10;13.05;;;;;;;9.01;86.07;100554.28;10402149;28;20069;-62
2022/11/30 01:41:06;;;;;;;22.08;13.23;;;;;;;9.00;86.29;100552.56;10394597;28;20479;-63
2022/11/30 01:46:23;;;;;;;21.48;14.45;;;;;;;8.98;86.24;100555.31;10393134;28;20491;-62
2022/11/30 01:51:31;;;;;;;21.95;13.73;;;;;;;8.99;85.90;100561.47;10400745;28;20111;-62
2022/11/30 01:56:33;;;;;;;23.75;13.27;;;;;;;8.93;86.34;100551.28;10395506;28;20049;-63
2022/11/30 02:01:34;;;;;;;22.35;14.07;;;;;;;9.03;85.93;100560.31;10396237;28;20168;-61
2022/11/30 02:06:35;;;;;;;22.35;13.63;;;;;;;8.93;86.15;100556.59;10399224;28;20050;-61
2022/11/30 02:11:37;;;;;;;19.80;12.52;;;;;;;8.92;86.50;100562.88;10397124;28;20539;-61
2022/11/30 02:16:41;;;;;;;21.63;13.63;;;;;;;8.90;86.58;100573.56;10395002;28;20064;-65
2022/11/30 02:21:52;;;;;;;20.65;13.68;;;;;;;8.86;86.91;100569.44;10394193;28;20140;-62
2022/11/30 02:27:03;;;;;;;17.75;12.60;;;;;;;8.90;87.23;100575.38;10390376;28;20044;-62
2022/11/30 02:32:27;;;;;;;20.73;13.57;;;;;;;8.91;87.39;100569.13;10394581;28;20052;-62
2022/11/30 02:37:30;;;;;;;22.23;13.50;;;;;;;8.89;87.48;100568.38;10393105;28;20053;-63
2022/11/30 02:42:32;;;;;;;21.67;12.77;;;;;;;8.93;87.86;100562.78;10389929;28;20287;-62
2022/11/30 02:47:45;;;;;;;17.77;12.80;;;;;;;8.94;88.04;100566.25;10391891;28;20152;-62
2022/11/30 02:52:47;;;;;;;19.02;13.60;;;;;;;8.93;87.70;100567.22;10395984;28;20053;-62
2022/11/30 02:57:49;;;;;;;24.67;14.05;;;;;;;8.95;88.51;100573.28;10393059;28;20060;-62
2022/11/30 03:02:50;;;;;;;22.50;14.80;;;;;;;8.95;88.55;100575.94;10404843;28;20064;-63
2022/11/30 03:07:51;;;;;;;21.83;14.95;;;;;;;8.92;88.65;100576.16;10400171;28;20076;-63
2022/11/30 03:12:59;;;;;;;20.10;13.73;;;;;;;8.92;88.74;100582.31;10401191;28;20053;-64
2022/11/30 03:18:04;;;;;;;21.35;14.75;;;;;;;8.92;88.62;100589.44;10396238;28;20424;-62
2022/11/30 03:23:05;;;;;;;;;;;;;;;8.91;89.06;100585.06;10403965;28;20064;-63
2022/11/30 03:28:06;;;;;;;23.90;14.38;;;;;;;8.85;88.89;100578.34;10399837;28;20306;-62
2022/11/30 03:33:07;;;;;;;20.63;13.63;;;;;;;8.89;88.85;100581.63;10396985;28;20049;-62
2022/11/30 03:38:09;;;;;;;23.73;14.23;;;;;;;8.90;89.22;100591.31;10399139;28;20045;-63
2022/11/30 03:43:10;;;;;;;23.50;14.57;;;;;;;8.82;89.52;100581.22;10401299;28;20052;-62
2022/11/30 03:48:11;;;;;;;20.70;13.43;;;;;;;8.79;89.24;100576.13;10403556;28;20053;-63
2022/11/30 03:53:13;;;;;;;19.98;13.15;;;;;;;8.90;88.81;100588.66;10399927;28;20101;-61
2022/11/30 03:58:14;;;;;;;22.15;14.52;;;;;;;8.81;88.98;100577.72;10392230;28;20059;-62
2022/11/30 04:03:15;;;;;;;22.33;13.65;;;;;;;8.90;88.93;100589.50;10398498;28;20045;-61
2022/11/30 04:08:17;;;;;;;22.80;13.23;;;;;;;8.95;89.21;100583.91;10392929;28;20154;-61
2022/11/30 04:13:20;;;;;;;19.50;13.13;;;;;;;8.93;89.27;100593.75;10392203;28;20203;-61
2022/11/30 04:18:23;;;;;;;21.13;13.45;;;;;;;8.95;89.09;100597.19;10401031;28;20115;-63
2022/11/30 04:23:29;;;;;;;21.85;13.68;;;;;;;8.90;88.92;100583.34;10407383;28;20085;-63
2022/11/30 04:28:31;;;;;;;21.55;13.48;;;;;;;8.91;89.40;100596.53;10396313;28;20130;-63
2022/11/30 04:33:32;;;;;;;20.98;14.07;;;;;;;8.83;89.21;100594.41;10395947;28;20049;-62
2022/11/30 04:38:35;;;;;;;21.17;13.25;;;;;;;8.88;89.59;100601.19;10392870;28;20621;-61
2022/11/30 04:43:37;;;;;;;24.15;15.38;;;;;;;8.80;89.60;100599.06;10395441;28;20174;-61
2022/11/30 04:48:38;;;;;;;21.63;14.95;;;;;;;8.74;90.11;100605.63;10395848;28;20127;-61
2022/11/30 04:53:39;;;;;;;23.58;15.65;;;;;;;8.68;90.88;100592.78;10394765;28;20045;-61
2022/11/30 04:58:41;;;;;;;21.45;15.10;;;;;;;8.67;91.06;100591.06;10392418;28;20059;-61
2022/11/30 05:03:42;;;;;;;22.55;15.40;;;;;;;8.79;91.02;100598.19;10387454;28;20050;-63
2022/11/30 05:08:43;;;;;;;22.52;15.20;;;;;;;8.70;90.89;100588.22;10397101;28;20052;-62
2022/11/30 05:13:45;;;;;;;20.90;15.85;;;;;;;8.78;91.09;100596.53;10399765;28;20060;-63
2022/11/30 05:18:46;;;;;;;22.75;15.30;;;;;;;8.80;90.71;100599.91;10390445;28;20068;-68
2022/11/30 05:23:47;;;;;;;22.50;15.57;;;;;;;8.74;90.73;100587.06;10394057;28;20049;-62
2022/11/30 05:28:49;;;;;;;25.80;16.67;;;;;;;8.82;90.51;100616.56;10395049;28;20052;-61
2022/11/30 05:33:52;;;;;;;23.48;16.20;;;;;;;8.58;90.88;100573.13;10390349;28;20105;-62
2022/11/30 05:38:53;;;;;;;25.15;17.83;;;;;;;8.85;90.93;100623.50;10392217;28;20045;-62
2022/11/30 05:43:55;;;;;;;24.52;16.48;;;;;;;8.85;90.87;100618.19;10395237;28;20049;-62
2022/11/30 05:48:56;;;;;;;24.77;16.83;;;;;;;8.84;90.93;100613.81;10394876;28;20041;-62
2022/11/30 05:53:58;;;;;;;27.42;17.55;;;;;;;8.92;90.93;100618.63;10395678;28;20056;-61
2022/11/30 05:58:59;;;;;;;26.70;16.80;;;;;;;8.78;90.67;100607.13;10363982;28;20057;-60
2022/11/30 06:04:03;;;;;;;25.48;17.45;;;;;;;9.00;90.29;100630.41;10373726;28;20056;-62
2022/11/30 06:09:09;;;;;;;26.73;18.08;;;;;;;8.93;90.67;100615.88;10369955;28;20786;-62
2022/11/30 06:14:10;;;;;;;25.40;17.70;;;;;;;8.92;90.77;100623.94;10379675;28;20049;-62
2022/11/30 06:19:12;;;;;;;26.70;17.50;;;;;;;8.93;90.95;100634.47;10383196;28;20052;-61
2022/11/30 06:24:13;;;;;;;25.58;17.80;;;;;;;8.91;90.89;100638.16;10379463;28;20045;-62
2022/11/30 06:29:14;;;;;;;26.55;17.20;;;;;;;8.82;91.28;100616.56;10380002;28;20057;-60
2022/11/30 06:34:16;;;;;;;23.70;16.20;;;;;;;8.95;91.08;100624.56;10376131;28;20103;-63
2022/11/30 06:39:17;;;;;;;25.98;17.67;;;;;;;8.96;90.92;100636.03;10371161;28;20258;-61
2022/11/30 06:44:38;;;;;;;31.38;19.48;;;;;;;9.06;90.58;100637.13;10376122;28;20056;-60
2022/11/30 06:49:39;;;;;;;30.77;19.17;;;;;;;8.88;91.01;100633.06;10378497;28;20280;-62
2022/11/30 06:54:41;;;;;;;26.38;16.20;;;;;;;9.02;90.84;100643.56;10374858;28;20049;-63
2022/11/30 06:59:42;;;;;;;29.83;18.75;;;;;;;8.94;91.59;100640.59;10376491;28;20260;-62
2022/11/30 07:04:44;;;;;;;29.20;17.58;;;;;;;8.95;91.49;100644.97;10378944;28;20469;-61
2022/11/30 07:09:46;;;;;;;28.13;17.50;;;;;;;8.97;91.55;100653.69;10374901;28;20056;-63
2022/11/30 07:14:51;;;;;;;25.85;17.33;;;;;;;8.96;92.10;100646.66;10380528;28;20052;-61
2022/11/30 07:19:52;;;;;;;23.40;16.63;;;;;;;9.01;91.91;100656.00;10381677;28;21485;-61
2022/11/30 07:30:14;;;;;;;18.75;14.50;;;;;;;9.09;91.25;100659.97;10381783;28;20041;-64
2022/11/30 07:35:15;;;;;;;19.48;16.17;;;;;;;9.14;91.58;100660.50;10386976;28;20060;-60
2022/11/30 07:40:17;;;;;;;25.48;16.40;;;;;;;9.15;91.68;100663.03;10378301;28;20576;-63
2022/11/30 07:45:18;;;;;;;21.65;15.52;;;;;;;9.10;91.87;100675.78;10378943;28;20475;-63
2022/11/30 07:50:20;;;;;;;22.83;15.05;;;;;;;9.13;91.84;100672.94;10379553;28;20104;-63
2022/11/30 07:55:22;;;;;;;21.83;14.70;;;;;;;9.30;92.78;100660.31;10389518;28;20052;-62
2022/11/30 08:00:24;;;;;;;17.70;13.90;;;;;;;9.29;91.56;100671.88;10389327;28;20449;-62
2022/11/30 08:05:25;;;;;;;21.08;15.35;;;;;;;9.24;91.65;100679.31;10392394;28;20049;-61
2022/11/30 08:10:27;;;;;;;20.20;14.65;;;;;;;9.16;92.31;100674.53;10387189;28;20098;-62
2022/11/30 08:15:28;;;;;;;20.20;14.32;;;;;;;9.07;92.36;100660.06;10390914;28;20056;-61
2022/11/30 08:20:33;;;;;;;19.58;14.52;;;;;;;9.18;91.93;100678.75;10392397;28;20124;-62
2022/11/30 08:25:35;;;;;;;18.25;13.13;;;;;;;9.17;91.66;100671.78;10395698;28;20064;-62
2022/11/30 08:30:36;;;;;;;16.45;12.77;;;;;;;9.00;92.12;100645.50;10394094;28;20502;-62
2022/11/30 08:35:37;;;;;;;18.80;13.40;;;;;;;9.20;91.82;100676.00;10396620;28;20076;-61
2022/11/30 08:40:39;;;;;;;18.48;13.18;;;;;;;9.10;91.67;100673.13;10394420;28;20053;-64
2022/11/30 08:45:40;;;;;;;20.48;14.93;;;;;;;9.13;91.55;100674.75;10391604;28;20845;-63
2022/11/30 08:50:41;;;;;;;24.33;18.67;;;;;;;9.17;91.79;100682.41;10392748;28;20187;-62
2022/11/30 08:55:43;;;;;;;28.65;22.85;;;;;;;9.23;91.92;100696.22;10394398;28;20049;-62
2022/11/30 09:00:44;;;;;;;29.60;21.73;;;;;;;9.09;91.42;100660.81;10384892;28;20514;-64
2022/11/30 09:05:45;;;;;;;24.48;17.75;;;;;;;9.23;91.40;100696.22;10383584;28;20444;-62
2022/11/30 09:10:47;;;;;;;25.73;16.50;;;;;;;9.27;91.49;100705.69;10382210;28;20060;-63
2022/11/30 09:15:54;;;;;;;29.70;18.02;;;;;;;9.26;91.41;100706.63;10380118;28;20108;-62
2022/11/30 09:21:00;;;;;;;27.02;18.27;;;;;;;9.29;91.19;100711.72;10374371;28;20142;-62
2022/11/30 09:26:05;;;;;;;26.85;18.63;;;;;;;9.30;91.42;100708.97;10380318;28;20768;-62
2022/11/30 09:31:10;;;;;;;30.40;20.38;;;;;;;9.32;90.99;100711.50;10383029;28;20053;-62
2022/11/30 09:36:14;;;;;;;29.00;18.65;;;;;;;9.38;90.69;100711.09;10379848;28;20056;-62
2022/11/30 09:41:27;;;;;;;29.23;18.88;;;;;;;9.49;90.66;100708.56;10379287;28;20139;-61
2022/11/30 09:47:03;;;;;;;30.55;18.95;;;;;;;9.54;90.22;100703.78;10381464;28;20049;-63
2022/11/30 09:52:10;;;;;;;30.45;19.23;;;;;;;9.58;89.86;100711.53;10338926;28;20134;-62
2022/11/30 09:57:28;;;;;;;30.50;18.42;;;;;;;9.54;90.45;100711.75;10381648;28;20690;-62
2022/11/30 10:02:32;;;;;;;26.13;18.67;;;;;;;9.42;90.56;100701.97;10375941;28;20068;-62
2022/11/30 10:07:55;;;;;;;30.85;18.95;;;;;;;9.55;90.50;100709.97;10375938;28;20065;-62
2022/11/30 10:13:15;;;;;;;27.65;18.27;;;;;;;9.50;90.28;100715.59;10382401;28;20111;-62
2022/11/30 10:18:42;;;;;;;29.80;19.35;;;;;;;9.50;90.53;100710.28;10379065;28;20571;-61
2022/11/30 10:24:03;;;;;;;24.35;17.73;;;;;;;9.52;90.73;100718.97;10382471;28;20224;-64
2022/11/30 10:29:17;;;;;;;19.35;13.88;;;;;;;9.53;90.73;100710.06;10380281;28;20440;-63
2022/11/30 10:34:34;;;;;;;17.50;13.68;;;;;;;9.47;89.55;100704.31;10381495;28;20055;-63
2022/11/30 10:39:44;;;;;;;16.02;11.70;;;;;;;9.42;89.77;100701.97;10377414;28;20049;-62
2022/11/30 10:45:02;;;;;;;20.27;15.20;;;;;;;9.43;90.30;100701.03;10378321;28;20063;-60
2022/11/30 10:50:05;;;;;;;21.60;16.63;;;;;;;9.41;90.33;100705.56;10373775;28;20045;-61
2022/11/30 10:55:14;;;;;;;25.70;17.45;;;;;;;9.34;91.00;100689.22;10375678;28;20049;-62
2022/11/30 11:00:17;;;;;;;16.85;13.05;;;;;;;9.31;86.50;100699.22;10376927;28;20139;-62
2022/11/30 11:05:29;;;;;;;17.08;13.00;;;;;;;9.26;87.29;100703.97;10372086;28;20052;-62
2022/11/30 11:10:41;;;;;;;16.42;14.23;;;;;;;9.12;87.60;100683.66;10376868;28;20044;-61
2022/11/30 11:15:57;;;;;;;20.33;14.27;;;;;;;9.09;86.84;100684.72;10376933;28;20713;-61
2022/11/30 11:21:02;;;;;;;17.85;15.48;;;;;;;9.10;86.17;100686.41;10383687;28;20049;-61
2022/11/30 11:26:28;;;;;;;19.30;17.40;;;;;;;9.12;85.83;100697.78;10382605;28;20136;-62
2022/11/30 11:31:45;;;;;;;33.20;30.05;;;;;;;9.13;85.28;100675.59;10382771;28;20068;-61
2022/11/30 11:36:46;;;;;;;19.60;16.95;;;;;;;9.34;85.82;100693.69;10384186;28;20056;-62
2022/11/30 11:41:47;;;;;;;17.15;14.25;;;;;;;9.32;86.18;100695.56;10381980;28;20060;-62
2022/11/30 11:47:01;;;;;;;19.70;14.40;;;;;;;9.37;86.21;100682.84;10382134;28;20209;-62
2022/11/30 11:52:16;;;;;;;20.85;14.45;;;;;;;9.44;85.91;100681.44;10386141;28;20049;-61
2022/11/30 11:57:24;;;;;;;21.13;16.23;;;;;;;9.51;86.44;100685.38;10380882;28;20072;-62
2022/11/30 12:02:36;;;;;;;21.17;17.45;;;;;;;9.64;85.94;100684.56;10381425;28;20049;-65
2022/11/30 12:07:49;;;;;;;24.42;16.67;;;;;;;9.43;85.76;100655.84;10380839;28;20061;-62
2022/11/30 12:12:52;;;;;;;20.45;17.10;;;;;;;9.50;86.00;100677.50;10380385;28;20057;-62
2022/11/30 12:18:08;;;;;;;26.42;19.73;;;;;;;9.48;86.51;100680.28;10383549;28;20555;-62
2022/11/30 12:23:33;;;;;;;25.45;19.25;;;;;;;9.54;87.17;100684.31;10379353;28;20049;-64
2022/11/30 12:28:40;;;;;;;20.67;16.63;;;;;;;9.57;87.67;100691.25;10383018;28;20048;-62
2022/11/30 12:34:20;;;;;;;23.05;17.13;;;;;;;9.52;87.48;100692.41;10381196;28;20047;-63
2022/11/30 12:39:30;;;;;;;26.00;18.00;;;;;;;9.45;87.35;100690.28;10378651;28;20040;-63
2022/11/30 12:44:40;;;;;;;22.85;17.98;;;;;;;9.45;87.97;100683.16;10372765;28;21307;-63
2022/11/30 12:50:09;;;;;;;26.52;19.55;;;;;;;9.44;87.36;100691.22;10372530;28;20095;-63
2022/11/30 12:55:34;;;;;;;20.35;17.27;;;;;;;9.41;87.52;100696.75;10368981;28;20639;-63
2022/11/30 13:01:05;;;;;;;25.85;17.65;;;;;;;9.31;87.40;100694.72;10376464;28;20056;-62
2022/11/30 13:06:12;;;;;;;22.98;17.92;;;;;;;9.29;86.28;100701.09;10370045;28;20451;-63
2022/11/30 13:11:23;;;;;;;22.25;17.52;;;;;;;9.24;86.21;100692.59;10373895;28;20049;-63
2022/11/30 13:16:25;;;;;;;22.65;17.88;;;;;;;9.26;87.33;100685.38;10373736;28;20055;-62
2022/11/30 13:21:38;;;;;;;27.08;18.60;;;;;;;9.21;87.28;100683.03;10376066;28;20068;-62
2022/11/30 13:26:53;;;;;;;25.20;17.52;;;;;;;9.30;87.95;100698.34;10371248;28;20059;-62
2022/11/30 13:32:04;;;;;;;;;;;;;;;9.36;88.09;100697.06;10371319;28;20582;-63
2022/11/30 13:37:08;;;;;;;23.75;17.63;;;;;;;9.40;87.03;100687.94;10372568;28;20279;-63
2022/11/30 13:42:09;;;;;;;25.48;18.35;;;;;;;9.40;86.93;100693.25;10374805;28;20063;-62
2022/11/30 13:47:18;;;;;;;23.42;17.98;;;;;;;9.43;87.67;100687.72;10379789;28;20052;-62
2022/11/30 13:52:57;;;;;;;23.50;17.20;;;;;;;9.46;87.59;100684.03;10377797;28;20512;-62
2022/11/30 13:57:59;;;;;;;22.15;16.88;;;;;;;9.48;86.45;100690.06;10372534;28;20578;-62
2022/11/30 14:03:19;;;;;;;22.23;16.90;;;;;;;9.45;86.42;100685.81;10374593;28;20057;-63
2022/11/30 14:08:20;;;;;;;22.38;17.83;;;;;;;9.51;87.04;100685.38;10367848;28;20264;-65
2022/11/30 14:13:31;;;;;;;24.00;16.60;;;;;;;9.51;86.87;100693.34;10371044;28;20067;-65
2022/11/30 14:18:39;;;;;;;20.90;17.33;;;;;;;9.54;87.59;100690.47;10369479;28;20519;-64
2022/11/30 14:23:53;;;;;;;25.08;18.25;;;;;;;9.59;86.78;100694.63;10371379;28;20056;-62
2022/11/30 14:29:09;;;;;;;20.80;16.92;;;;;;;9.61;86.27;100706.00;10372337;28;20915;-62
2022/11/30 14:34:22;;;;;;;20.45;16.40;;;;;;;9.61;86.22;100716.63;10371817;28;20590;-62
2022/11/30 14:39:30;;;;;;;18.90;14.18;;;;;;;9.61;86.28;100708.66;10372115;28;20294;-63
2022/11/30 14:44:39;;;;;;;20.02;16.15;;;;;;;9.58;85.77;100698.25;10378838;28;20060;-64
2022/11/30 14:49:46;;;;;;;19.83;16.50;;;;;;;9.39;85.96;100670.28;10373610;28;20079;-63
2022/11/30 14:55:09;;;;;;;19.95;15.55;;;;;;;9.53;85.79;100699.44;10375314;28;20055;-62
2022/11/30 15:00:19;;;;;;;17.10;15.30;;;;;;;9.31;85.67;100672.63;10374856;28;20052;-62
2022/11/30 15:05:25;;;;;;;18.42;16.42;;;;;;;9.50;86.22;100702.31;10370279;28;20052;-63
2022/11/30 15:10:32;;;;;;;17.15;15.00;;;;;;;9.48;86.08;100701.53;10371784;28;20735;-63
2022/11/30 15:15:34;;;;;;;16.65;13.90;;;;;;;9.62;85.61;100707.72;10369385;28;20091;-62
2022/11/30 15:20:56;;;;;;;16.90;14.48;;;;;;;9.58;84.98;100707.09;10374920;28;20049;-62
2022/11/30 15:26:03;;;;;;;17.25;13.90;;;;;;;9.52;85.03;100702.19;10374643;28;20278;-62
2022/11/30 15:31:08;;;;;;;15.57;13.02;;;;;;;9.50;84.95;100701.44;10376113;28;20356;-62
2022/11/30 15:36:10;;;;;;;15.85;14.25;;;;;;;9.48;85.50;100706.84;10373218;28;20598;-61
2022/11/30 15:41:33;;;;;;;14.77;13.25;;;;;;;9.45;85.77;100712.38;10375629;28;20060;-62
2022/11/30 15:46:37;;;;;;;13.68;12.30;;;;;;;9.36;85.80;100715.69;10373832;28;20171;-63
2022/11/30 15:51:58;;;;;;;13.05;11.75;;;;;;;9.40;86.24;100725.16;10377678;28;20056;-63
2022/11/30 15:56:59;;;;;;;13.23;11.82;;;;;;;9.36;85.29;100723.66;10380411;28;20834;-62
2022/11/30 16:02:30;;;;;;;12.00;10.80;;;;;;;9.42;86.28;100725.03;10398776;28;20052;-60
2022/11/30 16:07:38;;;;;;;12.75;11.48;;;;;;;9.50;86.57;100723.56;10377678;28;20040;-61
2022/11/30 16:12:42;;;;;;;14.02;12.63;;;;;;;9.61;86.60;100732.59;10384859;28;21118;-62
2022/11/30 16:17:43;;;;;;;13.65;12.35;;;;;;;9.49;86.50;100724.50;10383928;28;20061;-62
2022/11/30 16:22:47;;;;;;;13.75;12.38;;;;;;;9.61;85.48;100743.22;10383641;28;20052;-61
2022/11/30 16:27:49;;;;;;;15.82;13.10;;;;;;;9.41;85.82;100716.19;10381432;28;20048;-60
2022/11/30 16:32:50;;;;;;;13.38;11.93;;;;;;;9.54;86.34;100746.28;10383327;28;20063;-62
2022/11/30 16:37:52;;;;;;;13.00;11.77;;;;;;;9.43;86.29;100732.91;10385115;28;20044;-61
2022/11/30 16:42:53;;;;;;;12.93;11.57;;;;;;;9.44;86.71;100747.88;10379816;28;20173;-61
2022/11/30 16:47:54;;;;;;;13.45;12.05;;;;;;;9.49;86.52;100751.09;10381421;28;20125;-60
2022/11/30 16:52:55;;;;;;;12.57;11.35;;;;;;;9.53;86.74;100763.22;10379221;28;20091;-61
2022/11/30 16:57:57;;;;;;;12.23;11.02;;;;;;;9.54;85.88;100764.91;10378505;28;21813;-62
2022/11/30 17:03:05;;;;;;;13.13;11.77;;;;;;;9.54;86.13;100767.56;10384461;28;20057;-61
2022/11/30 17:08:08;;;;;;;12.18;10.98;;;;;;;9.49;86.17;100772.34;10381564;28;20701;-60
2022/11/30 17:13:13;;;;;;;12.75;11.55;;;;;;;9.50;86.55;100774.06;10379605;28;20169;-60
2022/11/30 17:18:15;;;;;;;11.52;10.50;;;;;;;9.51;85.61;100778.41;10380149;28;20077;-60
2022/11/30 17:23:16;;;;;;;13.90;12.50;;;;;;;9.46;85.59;100772.56;10381545;28;20504;-62
2022/11/30 17:28:18;;;;;;;12.93;11.73;;;;;;;9.39;85.28;100773.91;10379851;28;20048;-61
2022/11/30 17:33:19;;;;;;;11.73;10.55;;;;;;;9.44;85.11;100781.56;10380547;28;20065;-60
2022/11/30 17:38:20;;;;;;;13.30;12.00;;;;;;;9.34;85.28;100779.53;10383934;28;20049;-61
2022/11/30 17:43:22;;;;;;;13.50;12.07;;;;;;;9.41;85.23;100793.25;10375998;28;20084;-60
2022/11/30 17:48:23;;;;;;;16.48;12.77;;;;;;;9.45;85.08;100791.25;10378692;28;20045;-61
2022/11/30 17:53:24;;;;;;;13.20;11.77;;;;;;;9.41;85.20;100795.91;10379531;28;20296;-62
2022/11/30 17:58:26;;;;;;;15.05;12.82;;;;;;;9.43;85.15;100794.03;10379362;28;20049;-61
2022/11/30 18:03:34;;;;;;;14.10;12.38;;;;;;;9.42;85.38;100788.81;10383413;28;20052;-61
2022/11/30 18:08:36;;;;;;;13.90;12.43;;;;;;;9.49;84.52;100782.97;10381155;28;20673;-60
2022/11/30 18:13:38;;;;;;;11.68;10.52;;;;;;;9.54;84.84;100788.81;10381396;28;21282;-61
2022/11/30 18:18:40;;;;;;;16.70;12.55;;;;;;;9.64;84.68;100805.00;10383356;28;20558;-60
2022/11/30 18:23:48;;;;;;;14.32;13.00;;;;;;;9.54;84.57;100802.09;10381687;28;20403;-61
2022/11/30 18:28:55;;;;;;;13.48;12.18;;;;;;;9.50;84.94;100808.59;10379006;28;20515;-60
2022/11/30 18:34:01;;;;;;;14.10;12.70;;;;;;;9.55;85.08;100810.94;10381248;28;20159;-60
2022/11/30 18:39:03;;;;;;;13.50;12.10;;;;;;;9.48;84.90;100805.19;10382206;28;20056;-62
2022/11/30 18:44:04;;;;;;;12.75;11.45;;;;;;;9.54;85.32;100814.56;10384184;28;20343;-61
2022/11/30 18:49:06;;;;;;;13.95;12.63;;;;;;;9.50;85.62;100816.56;10385758;28;20136;-60
2022/11/30 18:54:08;;;;;;;14.05;12.57;;;;;;;9.49;86.19;100817.53;10383375;28;20045;-62
2022/11/30 18:59:13;;;;;;;13.50;12.20;;;;;;;9.44;85.98;100816.13;10383031;28;20045;-62
2022/11/30 19:04:14;;;;;;;12.50;11.23;;;;;;;9.45;86.16;100812.53;10381855;28;20053;-60
2022/11/30 19:09:17;;;;;;;12.25;10.95;;;;;;;9.41;86.31;100819.81;10383831;28;20049;-65
2022/11/30 19:14:19;;;;;;;13.60;12.20;;;;;;;9.53;85.88;100816.38;10376671;28;20064;-61
2022/11/30 19:19:20;;;;;;;14.32;12.80;;;;;;;9.39;85.94;100811.13;10380198;28;20056;-61
2022/11/30 19:24:22;;;;;;;14.18;12.77;;;;;;;9.36;86.13;100819.28;10380031;28;20064;-60
2022/11/30 19:29:24;;;;;;;14.75;13.25;;;;;;;9.34;85.98;100824.72;10381024;28;20045;-60
2022/11/30 19:34:25;;;;;;;14.02;12.60;;;;;;;9.34;86.09;100824.72;10382659;28;20064;-61
2022/11/30 19:39:26;;;;;;;12.18;11.07;;;;;;;9.38;86.30;100843.94;10382078;28;20052;-61
2022/11/30 19:44:28;;;;;;;14.05;12.75;;;;;;;9.37;86.06;100834.28;10379612;28;20240;-61
2022/11/30 19:49:29;;;;;;;13.50;12.10;;;;;;;9.35;86.12;100834.41;10387404;28;20555;-61
2022/11/30 19:54:30;;;;;;;13.30;11.90;;;;;;;9.43;86.01;100836.53;10388249;28;20522;-60
2022/11/30 19:59:32;;;;;;;12.32;11.13;;;;;;;9.47;85.60;100837.16;10384323;28;20495;-61
2022/11/30 20:04:33;;;;;;;12.32;11.13;;;;;;;9.36;85.44;100833.41;10388953;28;20059;-60
2022/11/30 20:09:34;;;;;;;12.23;11.05;;;;;;;9.49;85.24;100851.22;10387381;28;20045;-62
2022/11/30 20:14:36;;;;;;;12.90;11.60;;;;;;;9.46;85.51;100852.28;10381705;28;20079;-61
2022/11/30 20:19:37;;;;;;;12.15;11.05;;;;;;;9.36;85.30;100835.22;10379378;28;20048;-61
2022/11/30 20:24:38;;;;;;;12.13;10.93;;;;;;;9.27;84.95;100833.19;10386584;28;20075;-62
2022/11/30 20:29:40;;;;;;;11.35;10.35;;;;;;;9.43;84.30;100848.94;10383556;28;20057;-62
2022/11/30 20:34:41;;;;;;;10.68;9.57;;;;;;;9.37;84.93;100855.53;10381818;28;20053;-60
2022/11/30 20:39:46;;;;;;;10.80;9.43;;;;;;;9.30;85.11;100846.28;10398584;28;20136;-60
2022/11/30 20:44:48;;;;;;;12.63;10.27;;;;;;;9.34;84.82;100853.94;10380857;28;20093;-61
2022/11/30 20:49:50;;;;;;;10.32;9.32;;;;;;;9.30;84.74;100851.59;10381269;28;20150;-60
2022/11/30 20:54:51;;;;;;;10.25;9.35;;;;;;;9.27;84.94;100851.78;10381377;28;20320;-61
2022/11/30 20:59:52;;;;;;;10.82;9.73;;;;;;;9.32;85.04;100854.97;10382944;28;20071;-60
2022/11/30 21:04:54;;;;;;;11.45;10.27;;;;;;;9.36;85.54;100861.81;10386287;28;20064;-60
2022/11/30 21:09:55;;;;;;;12.82;11.63;;;;;;;9.35;85.14;100860.97;10386715;28;20049;-60
2022/11/30 21:14:56;;;;;;;11.43;10.32;;;;;;;9.30;85.56;100868.38;10374855;28;20237;-62
2022/11/30 21:19:59;;;;;;;12.10;10.82;;;;;;;9.31;85.83;100855.97;10367486;28;20095;-61
2022/11/30 21:25:00;;;;;;;12.32;11.13;;;;;;;9.26;85.59;100855.38;10376205;28;20053;-61
2022/11/30 21:30:03;;;;;;;12.02;10.85;;;;;;;9.34;85.44;100869.03;10374235;28;20329;-61
2022/11/30 21:35:05;;;;;;;11.73;10.52;;;;;;;9.33;85.34;100867.31;10377963;28;20048;-61
2022/11/30 21:40:07;;;;;;;12.52;11.23;;;;;;;9.24;85.00;100852.84;10382340;28;20582;-61
2022/11/30 21:45:09;;;;;;;11.23;10.13;;;;;;;9.33;85.26;100859.34;10381978;28;20060;-64
2022/11/30 21:50:11;;;;;;;11.95;10.85;;;;;;;9.31;85.29;100861.28;10382251;28;20048;-60
2022/11/30 21:55:12;;;;;;;11.75;10.65;;;;;;;9.33;85.52;100856.69;10380429;28;20551;-61
2022/11/30 22:00:14;;;;;;;12.13;11.00;;;;;;;9.24;85.87;100858.16;10379603;28;20049;-61
2022/11/30 22:05:15;;;;;;;12.13;10.80;;;;;;;9.27;85.50;100857.94;10376669;28;20647;-60
2022/11/30 22:10:16;;;;;;;12.65;11.35;;;;;;;9.15;86.04;100864.91;10378767;28;20449;-61
2022/11/30 22:15:18;;;;;;;14.45;12.45;;;;;;;9.02;85.41;100875.47;10376223;28;20543;-61
2022/11/30 22:20:19;;;;;;;14.05;12.65;;;;;;;8.83;83.78;100869.63;10382335;28;20072;-60
2022/11/30 22:25:20;;;;;;;15.02;13.05;;;;;;;8.69;85.13;100859.88;10383143;28;20053;-60
2022/11/30 22:30:21;;;;;;;19.38;13.63;;;;;;;8.73;84.63;100866.69;10381115;28;20057;-61
2022/11/30 22:35:23;;;;;;;16.42;13.93;;;;;;;8.64;84.75;100872.59;10378932;28;20060;-61
2022/11/30 22:40:24;;;;;;;14.68;13.13;;;;;;;8.47;84.34;100868.34;10392415;28;20041;-61
2022/11/30 22:45:25;;;;;;;16.52;13.73;;;;;;;8.42;84.17;100860.63;10392234;28;20248;-61
2022/11/30 22:50:27;;;;;;;15.50;13.32;;;;;;;8.44;84.44;100880.00;10387214;28;20080;-60
2022/11/30 22:55:28;;;;;;;18.05;14.35;;;;;;;8.20;83.30;100865.56;10389271;28;20047;-60
2022/11/30 23:00:29;;;;;;;15.20;13.48;;;;;;;8.20;83.81;100886.78;10386501;28;20053;-62
2022/11/30 23:05:33;;;;;;;16.27;13.80;;;;;;;8.09;83.82;100880.31;10384597;28;20045;-61
2022/11/30 23:10:34;;;;;;;15.57;13.68;;;;;;;8.01;84.66;100874.59;10391772;28;20057;-61